Aérodrome :
LOGIN :

S'inscrire | Disclaimer

   EN    FR    IT 

 










Légende :    VFR   VFR Marginal   IFR   IFR Intensif   IFR Très Intensif
Visi : 
Plafond : 
>= 8 km
>= 3000ft
5 à 8 km
1000 à 3000 ft
1500m à 5 km
500 à 1000 ft
800 à 1500m
200 à 500 ft
< 800m
< 200 ft
Symboles :   Orages  Brouillard  Fortes neiges  Fortes précipitations  Vent > 20 kt
SIGMETs :   Divers  Orages  Givrage  Turbulence  Onde Orograph.  Cendres Volcan.







- Altitude de l'aérodrome : 600 ft
- Code IATA : VIE


LOWW - Vienna Schwechat

DERNIER METAR :
  • 181250Z 31008KT 280V340 9999 FEW026 SCT060 03/M02 Q1017 R88/29//95 NOSIG

METARs EXPIRÉS :
  • 181220Z 32004KT 9999 FEW022 SCT028 BKN040 02/M02 Q1016 R88/29//95 TEMPO 31014G24KT
  • 181150Z 30008KT 9999 -SHSN FEW010 BKN028 02/M01 Q1017 TEMPO SHSN
  • 181120Z 30014KT 9999 FEW038 SCT050 BKN130 03/M02 Q1016 TEMPO SHSN
  • 181050Z 29011KT 9999 FEW030 BKN130 03/M02 Q1016 NOSIG
  • 181020Z 28014KT CAVOK 03/M02 Q1016 NOSIG
  • 180950Z 29013KT 9999 FEW020 BKN110 03/M02 Q1016 NOSIG

TAF COR TAF LOWW
Valide du 18 à 12h jusqu'au 19 à 18h UTC


181115Z 1812/1918 30012KT 9999 FEW030 TX03/1812Z TNM06/1904Z
TEMPO 1812/1813 31015G25KT -SHSN FEW020 BKN030 FEW030TCU
TEMPO 1813/1815 31015G25KT SCT030
BECMG 1818/1820 VRB02KT CAVOK
BECMG 1907/1909 09007KT
BECMG 1916/1918 13008KT
Pas de NOTAMs connus pour ce terrain.



MET'MAP, la Météo Aéronautique d'un coup d'oeil ! - Copyright ORBIFLY Décembre 2007 - Disclaimer

ORBIFLY MET'MAP TEAM :

Programmation & Développement : Alexandra Zaïnal
Conception & Développement : Baudouin d'Aumeries
Co-Programmation & Développement : Marc-Olivier Méhu
Soutien technique & logistique : Manuel Goepfert

Contact : metmap@orbifly.com




SOURCES & CREDITS :

   NOAA